createdAt,value
2022-10-23T00:01:45.651Z,38.77
2022-10-23T00:04:21.366Z,34.30
2022-10-23T00:06:55.807Z,31.02
2022-10-23T00:09:30.821Z,30.75
2022-10-23T00:12:05.097Z,34.13
2022-10-23T00:14:37.857Z,31.15
2022-10-23T00:17:12.854Z,32.03
2022-10-23T00:19:46.624Z,34.00
2022-10-23T00:22:19.348Z,35.95
2022-10-23T00:24:54.144Z,31.55
2022-10-23T00:27:31.938Z,33.70
2022-10-23T00:30:17.144Z,30.17
2022-10-23T00:32:50.949Z,35.38
2022-10-23T00:35:25.169Z,31.45
2022-10-23T00:37:57.959Z,30.45
2022-10-23T00:40:30.571Z,30.48
2022-10-23T00:43:04.422Z,34.25
2022-10-23T00:45:37.573Z,30.90
2022-10-23T00:48:12.301Z,33.65
2022-10-23T00:50:45.650Z,36.88
2022-10-23T00:53:20.462Z,35.55
2022-10-23T00:55:59.415Z,30.45
2022-10-23T00:58:35.157Z,31.15
2022-10-23T01:01:23.093Z,36.10
2022-10-23T01:03:57.771Z,33.25
2022-10-23T01:06:53.287Z,31.40
2022-10-23T01:09:50.206Z,31.17
2022-10-23T01:12:41.803Z,32.73
2022-10-23T01:15:24.777Z,33.05
2022-10-23T01:18:20.521Z,32.67
2022-10-23T01:21:08.698Z,28.10
2022-10-23T01:23:52.706Z,31.37
2022-10-23T01:26:40.709Z,29.85
2022-10-23T01:29:59.661Z,32.38
2022-10-23T01:33:01.321Z,36.42
2022-10-23T01:35:39.226Z,30.82
2022-10-23T01:38:27.413Z,31.50
2022-10-23T01:41:12.124Z,32.23
2022-10-23T01:43:51.509Z,32.60
2022-10-23T01:46:26.191Z,30.65
2022-10-23T01:48:59.831Z,32.63
2022-10-23T01:51:33.452Z,29.07
2022-10-23T01:54:10.230Z,31.15
2022-10-23T01:56:47.257Z,33.30
2022-10-23T01:59:28.023Z,29.98
2022-10-23T02:02:02.067Z,32.80
2022-10-23T02:04:45.423Z,36.48
2022-10-23T02:07:31.323Z,31.57
2022-10-23T02:10:07.602Z,33.25
2022-10-23T02:12:57.953Z,31.42
2022-10-23T02:15:48.496Z,35.48
2022-10-23T02:18:41.208Z,31.02
2022-10-23T02:21:55.448Z,32.13
2022-10-23T02:24:48.177Z,35.73
2022-10-23T02:27:29.967Z,29.23
2022-10-23T02:30:15.469Z,27.17
2022-10-23T02:32:54.628Z,35.20
2022-10-23T02:35:27.643Z,32.85
2022-10-23T02:38:02.905Z,30.60
2022-10-23T02:40:42.093Z,33.45
2022-10-23T02:43:22.498Z,36.08
2022-10-23T02:46:03.631Z,35.28
2022-10-23T02:48:56.239Z,33.23
2022-10-23T02:51:42.449Z,33.48
2022-10-23T02:54:40.989Z,37.83
2022-10-23T02:57:38.066Z,29.02
2022-10-23T03:00:19.717Z,30.12
2022-10-23T03:03:01.396Z,31.07
2022-10-23T03:05:41.296Z,32.30
2022-10-23T03:08:16.308Z,30.57
2022-10-23T03:10:49.520Z,36.37
2022-10-23T03:13:23.629Z,31.02
2022-10-23T03:16:19.798Z,34.73
2022-10-23T03:18:54.117Z,35.15
2022-10-23T03:21:29.078Z,33.78
2022-10-23T03:24:05.283Z,33.20
2022-10-23T03:26:39.554Z,34.05
2022-10-23T03:29:13.023Z,33.28
2022-10-23T03:31:48.662Z,34.35
2022-10-23T03:34:21.937Z,36.17
2022-10-23T03:36:56.981Z,32.78
2022-10-23T03:39:29.762Z,33.50
2022-10-23T03:42:04.119Z,36.17
2022-10-23T03:44:39.724Z,36.33
2022-10-23T03:49:46.727Z,34.25
2022-10-23T03:52:19.581Z,33.75
2022-10-23T03:54:57.262Z,34.05
2022-10-23T03:57:30.056Z,32.67
2022-10-23T04:00:03.716Z,32.67
2022-10-23T04:02:39.242Z,33.33
2022-10-23T04:05:15.747Z,33.55
2022-10-23T04:07:51.097Z,32.35
2022-10-23T04:10:26.139Z,33.42
2022-10-23T04:13:00.659Z,28.55
2022-10-23T04:15:40.334Z,32.03
2022-10-23T04:18:16.577Z,31.33
2022-10-23T04:20:50.925Z,28.35
2022-10-23T04:23:25.192Z,33.00
2022-10-23T04:25:59.879Z,27.48
2022-10-23T04:28:33.170Z,28.25
2022-10-23T04:31:07.757Z,25.15
2022-10-23T04:33:40.668Z,26.40
2022-10-23T04:36:13.683Z,26.37
2022-10-23T04:38:46.375Z,25.25
2022-10-23T04:41:20.461Z,23.32
2022-10-23T04:46:26.569Z,21.37
2022-10-23T04:49:00.882Z,22.45
2022-10-23T04:51:54.346Z,19.37
2022-10-23T04:54:46.941Z,20.82
2022-10-23T04:57:31.083Z,18.98
2022-10-23T05:00:09.094Z,18.00
2022-10-23T05:03:01.227Z,20.57
2022-10-23T05:05:36.715Z,20.05
2022-10-23T05:08:17.905Z,16.95
2022-10-23T05:10:58.054Z,17.20
2022-10-23T05:13:32.031Z,18.60
2022-10-23T05:16:05.730Z,17.75
2022-10-23T05:21:26.056Z,17.02
2022-10-23T05:24:03.323Z,16.60
2022-10-23T05:26:36.162Z,18.15
2022-10-23T05:29:10.738Z,17.07
2022-10-23T05:31:43.463Z,15.80
2022-10-23T05:34:21.698Z,16.23
2022-10-23T05:36:57.452Z,15.95
2022-10-23T05:39:32.056Z,16.42
2022-10-23T05:42:08.229Z,17.42
2022-10-23T05:44:42.470Z,17.45
2022-10-23T05:47:19.462Z,18.62
2022-10-23T05:49:59.880Z,16.37
2022-10-23T05:52:49.204Z,15.93
2022-10-23T05:55:25.520Z,14.60
2022-10-23T05:58:19.294Z,18.62
2022-10-23T06:00:56.759Z,17.45
2022-10-23T06:03:35.831Z,16.12
2022-10-23T06:06:10.169Z,15.80
2022-10-23T06:08:49.083Z,18.05
2022-10-23T06:11:23.606Z,16.62
2022-10-23T06:14:01.640Z,19.85
2022-10-23T06:16:35.161Z,18.73
2022-10-23T06:19:13.492Z,19.02
2022-10-23T06:21:46.808Z,20.95
2022-10-23T06:24:20.370Z,18.87
2022-10-23T06:26:58.464Z,20.57
2022-10-23T06:29:45.652Z,20.15
2022-10-23T06:32:22.171Z,19.57
2022-10-23T06:34:56.515Z,18.00
2022-10-23T06:37:30.876Z,20.97
2022-10-23T06:40:11.774Z,19.77
2022-10-23T06:43:02.707Z,20.17
2022-10-23T06:45:40.095Z,18.55
2022-10-23T06:48:19.019Z,19.62
2022-10-23T06:50:57.644Z,20.12
2022-10-23T06:53:34.187Z,21.10
2022-10-23T06:56:10.374Z,19.73
2022-10-23T06:58:44.974Z,19.55
2022-10-23T07:01:20.394Z,23.40
2022-10-23T07:03:54.794Z,19.45
2022-10-23T07:06:29.580Z,18.92
2022-10-23T07:09:03.851Z,20.32
2022-10-23T07:11:50.136Z,23.00
2022-10-23T07:14:27.196Z,19.30
2022-10-23T07:17:00.587Z,22.55
2022-10-23T07:19:34.146Z,21.87
2022-10-23T07:22:11.957Z,21.20
2022-10-23T07:24:48.969Z,20.90
2022-10-23T07:27:25.698Z,22.62
2022-10-23T07:30:04.006Z,23.32
2022-10-23T07:32:40.479Z,24.37
2022-10-23T07:35:33.100Z,21.60
2022-10-23T07:38:10.295Z,21.62
2022-10-23T07:40:48.418Z,22.17
2022-10-23T07:43:22.416Z,24.15
2022-10-23T07:45:56.334Z,24.37
2022-10-23T07:48:34.092Z,24.32
2022-10-23T07:51:10.951Z,25.40
2022-10-23T07:53:55.014Z,24.20
2022-10-23T07:56:32.749Z,22.05
2022-10-23T07:59:27.445Z,25.32
2022-10-23T08:02:02.011Z,28.83
2022-10-23T08:04:38.177Z,22.60
2022-10-23T08:07:23.594Z,26.42
2022-10-23T08:09:57.251Z,24.82
2022-10-23T08:12:30.647Z,24.32
2022-10-23T08:15:05.841Z,29.18
2022-10-23T08:17:42.077Z,24.85
2022-10-23T08:20:21.481Z,24.30
2022-10-23T08:23:01.081Z,26.05
2022-10-23T08:25:35.803Z,25.55
2022-10-23T08:28:10.576Z,26.25
2022-10-23T08:30:45.394Z,26.05
2022-10-23T08:33:22.948Z,25.12
2022-10-23T08:36:00.655Z,25.92
2022-10-23T08:38:37.877Z,23.25
2022-10-23T08:44:16.583Z,24.18
2022-10-23T08:46:53.483Z,24.05
2022-10-23T08:49:53.628Z,22.10
2022-10-23T08:52:38.745Z,23.95
2022-10-23T09:01:00.639Z,29.25
2022-10-23T09:03:35.821Z,28.30
2022-10-23T09:07:01.890Z,32.40
2022-10-23T09:09:53.968Z,24.25
2022-10-23T09:12:28.681Z,24.45
2022-10-23T09:15:28.255Z,24.60
2022-10-23T09:18:11.005Z,26.95
2022-10-23T09:20:48.362Z,25.32
2022-10-23T09:23:23.625Z,22.37
2022-10-23T09:25:57.805Z,26.12
2022-10-23T09:28:33.251Z,24.30
2022-10-23T09:31:13.410Z,23.85
2022-10-23T09:34:01.019Z,21.93
2022-10-23T09:36:34.979Z,24.27
2022-10-23T09:39:12.444Z,23.67
2022-10-23T09:41:46.263Z,23.25
2022-10-23T09:44:25.461Z,23.10
2022-10-23T09:47:12.257Z,30.10
2022-10-23T09:49:51.688Z,25.00
2022-10-23T09:52:36.244Z,23.42
2022-10-23T09:55:24.288Z,21.35
2022-10-23T09:57:58.954Z,21.70
2022-10-23T10:00:31.840Z,21.82
2022-10-23T10:03:07.645Z,27.85
2022-10-23T10:06:20.197Z,24.67
2022-10-23T10:08:57.984Z,23.00
2022-10-23T10:11:51.879Z,22.60
2022-10-23T10:14:55.327Z,23.92
2022-10-23T10:17:47.783Z,24.52
2022-10-23T10:20:42.910Z,20.60
2022-10-23T10:23:52.000Z,17.37
2022-10-23T10:26:38.451Z,19.98
2022-10-23T10:29:39.805Z,18.62
2022-10-23T10:32:42.976Z,19.50
2022-10-23T10:35:32.378Z,19.57
2022-10-23T10:38:43.663Z,17.42
2022-10-23T10:41:36.237Z,17.12
2022-10-23T10:44:22.586Z,16.27
2022-10-23T10:47:03.027Z,22.05
2022-10-23T10:49:45.761Z,20.43
2022-10-23T10:53:07.335Z,14.17
2022-10-23T10:55:44.624Z,14.05
2022-10-23T10:58:41.561Z,15.10
2022-10-23T11:01:35.359Z,14.25
2022-10-23T11:04:40.518Z,14.33
2022-10-23T11:07:19.055Z,12.47
2022-10-23T11:09:55.575Z,15.65
2022-10-23T11:12:29.944Z,11.45
2022-10-23T11:15:04.253Z,13.43
2022-10-23T11:17:45.674Z,12.47
2022-10-23T11:20:53.826Z,14.00
2022-10-23T11:24:00.259Z,15.60
2022-10-23T11:27:05.197Z,13.80
2022-10-23T11:30:12.044Z,21.60
2022-10-23T11:33:31.616Z,12.68
2022-10-23T11:36:24.125Z,11.80
2022-10-23T11:39:04.107Z,14.30
2022-10-23T11:41:38.812Z,11.70
2022-10-23T11:44:42.871Z,10.25
2022-10-23T11:47:40.729Z,10.88
2022-10-23T11:50:20.497Z,11.55
2022-10-23T11:53:13.885Z,9.05
2022-10-23T11:56:08.792Z,9.98
2022-10-23T11:58:55.574Z,9.90
2022-10-23T12:01:46.963Z,13.10
2022-10-23T12:04:27.203Z,13.78
2022-10-23T12:07:04.294Z,9.33
2022-10-23T12:09:45.072Z,7.30
2022-10-23T12:12:35.368Z,8.33
2022-10-23T12:15:15.519Z,5.55
2022-10-23T12:17:51.247Z,7.55
2022-10-23T12:20:42.465Z,5.37
2022-10-23T12:23:50.411Z,5.53
2022-10-23T14:35:05.027Z,6.85
2022-10-23T14:37:40.885Z,7.83
2022-10-23T14:40:17.861Z,5.45
2022-10-23T14:42:55.465Z,5.15
2022-10-23T14:45:31.092Z,5.33
2022-10-23T14:48:09.489Z,6.25
2022-10-23T14:50:50.375Z,6.37
2022-10-23T14:53:27.934Z,5.33
2022-10-23T14:56:09.828Z,5.22
2022-10-23T14:58:44.057Z,12.33
2022-10-23T15:01:19.564Z,7.78
2022-10-23T15:03:56.742Z,9.43
2022-10-23T15:06:31.934Z,6.95
2022-10-23T15:09:06.340Z,6.60
2022-10-23T15:11:41.275Z,8.65
2022-10-23T15:14:20.709Z,6.10
2022-10-23T15:16:54.420Z,6.05
2022-10-23T15:19:31.632Z,5.37
2022-10-23T15:22:07.052Z,6.05
2022-10-23T15:24:44.876Z,23.32
2022-10-23T15:27:18.798Z,9.60
2022-10-23T15:29:55.268Z,6.30
2022-10-23T15:32:28.819Z,10.70
2022-10-23T15:35:02.703Z,8.25
2022-10-23T15:37:36.698Z,5.83
2022-10-23T15:40:12.096Z,8.30
2022-10-23T15:42:45.022Z,7.55
2022-10-23T15:45:18.703Z,7.45
2022-10-23T15:47:51.714Z,10.13
2022-10-23T15:50:25.787Z,6.72
2022-10-23T15:52:58.756Z,6.20
2022-10-23T15:55:33.280Z,7.58
2022-10-23T15:58:06.284Z,9.53
2022-10-23T16:00:42.438Z,6.65
2022-10-23T16:03:17.101Z,7.22
2022-10-23T16:05:50.793Z,7.62
2022-10-23T16:08:26.320Z,6.20
2022-10-23T16:11:01.309Z,7.33
2022-10-23T16:13:34.738Z,7.08
2022-10-23T16:16:10.051Z,12.33
2022-10-23T16:18:44.767Z,6.40
2022-10-23T16:21:26.903Z,11.38
2022-10-23T16:24:01.965Z,8.03
2022-10-23T16:26:37.355Z,9.48
2022-10-23T16:29:11.209Z,6.47
2022-10-23T16:31:50.295Z,9.83
2022-10-23T16:34:27.386Z,9.13
2022-10-23T16:37:00.957Z,8.60
2022-10-23T16:39:46.779Z,9.50
2022-10-23T16:42:38.399Z,8.58
2022-10-23T16:45:14.701Z,9.18
2022-10-23T16:47:49.561Z,8.58
2022-10-23T16:50:27.267Z,8.93
2022-10-23T16:53:06.897Z,9.80
2022-10-23T16:55:43.901Z,9.75
2022-10-23T16:58:18.857Z,8.55
2022-10-23T17:01:04.452Z,8.98
2022-10-23T17:04:02.594Z,8.40
2022-10-23T17:06:41.842Z,8.93
2022-10-23T17:09:18.261Z,9.43
2022-10-23T17:11:55.262Z,8.93
2022-10-23T17:14:34.709Z,13.72
2022-10-23T17:17:21.187Z,10.45
2022-10-23T17:20:07.581Z,8.53
2022-10-23T17:22:42.088Z,11.20
2022-10-23T17:25:18.053Z,8.28
2022-10-23T17:27:58.575Z,9.48
2022-10-23T17:30:37.025Z,8.33
2022-10-23T17:33:13.840Z,8.88
2022-10-23T17:35:51.214Z,8.08
2022-10-23T17:38:27.317Z,10.78
2022-10-23T17:41:07.969Z,9.45
2022-10-23T17:43:46.878Z,8.60
2022-10-23T17:46:21.809Z,7.92
2022-10-23T17:49:00.202Z,7.95
2022-10-23T17:51:42.344Z,11.40
2022-10-23T17:54:19.978Z,9.20
2022-10-23T17:56:55.000Z,8.23
2022-10-23T17:59:32.727Z,8.63
2022-10-23T18:02:09.591Z,8.18
2022-10-23T18:04:56.830Z,8.45
2022-10-23T18:07:31.361Z,8.48
2022-10-23T18:12:43.227Z,7.28
2022-10-23T18:15:16.987Z,8.00
2022-10-23T18:17:56.437Z,12.55
2022-10-23T18:20:40.617Z,7.45
2022-10-23T18:23:16.162Z,7.87
2022-10-23T18:25:51.519Z,8.33
2022-10-23T18:28:26.356Z,9.03
2022-10-23T18:31:11.210Z,8.10
2022-10-23T18:36:41.361Z,8.00
2022-10-23T18:39:22.948Z,7.30
2022-10-23T18:42:11.781Z,9.23
2022-10-23T18:44:48.923Z,7.95
2022-10-23T18:47:26.899Z,7.35
2022-10-23T18:50:05.335Z,7.33
2022-10-23T18:52:45.320Z,8.43
2022-10-23T18:55:20.946Z,8.00
2022-10-23T18:57:59.254Z,8.00
2022-10-23T19:00:37.904Z,7.45
2022-10-23T19:03:17.307Z,8.33
2022-10-23T19:05:57.735Z,8.43
2022-10-23T19:08:31.511Z,8.38
2022-10-23T19:11:06.848Z,9.00
2022-10-23T19:13:40.849Z,11.90
2022-10-23T19:16:32.297Z,7.42
2022-10-23T19:19:15.417Z,7.17
2022-10-23T19:22:03.091Z,10.05
2022-10-23T19:24:59.874Z,10.50
2022-10-23T19:27:34.013Z,10.40
2022-10-23T19:30:09.469Z,9.58
2022-10-23T19:32:44.574Z,7.55
2022-10-23T19:35:18.865Z,9.75
2022-10-23T19:37:53.803Z,8.15
2022-10-23T19:40:28.659Z,7.85
2022-10-23T19:43:03.058Z,6.87
2022-10-23T19:45:38.521Z,7.72
2022-10-23T19:48:11.454Z,7.20
2022-10-23T19:50:47.993Z,8.08
2022-10-23T19:53:20.686Z,7.53
2022-10-23T19:56:07.516Z,7.65
2022-10-23T19:58:42.168Z,8.98
2022-10-23T20:01:18.678Z,12.30
2022-10-23T20:03:52.005Z,7.55
2022-10-23T20:06:49.913Z,8.03
2022-10-23T20:09:22.536Z,7.30
2022-10-23T20:11:57.050Z,11.38
2022-10-23T20:14:29.627Z,9.88
2022-10-23T20:17:03.195Z,7.10
2022-10-23T20:19:37.263Z,7.15
2022-10-23T20:22:11.089Z,8.70
2022-10-23T20:24:43.630Z,8.13
2022-10-23T20:27:17.233Z,9.05
2022-10-23T20:29:51.071Z,7.47
2022-10-23T20:32:23.656Z,6.97
2022-10-23T20:34:56.425Z,7.92
2022-10-23T20:37:28.908Z,8.73
2022-10-23T20:40:01.592Z,7.50
2022-10-23T20:42:34.219Z,8.23
2022-10-23T20:45:07.514Z,7.15
2022-10-23T20:47:41.632Z,7.62
2022-10-23T20:50:14.733Z,8.30
2022-10-23T20:52:48.751Z,7.40
2022-10-23T20:55:21.871Z,7.08
2022-10-23T20:57:55.919Z,7.33
2022-10-23T21:00:28.801Z,7.15
2022-10-23T21:03:05.779Z,6.75
2022-10-23T21:05:38.767Z,10.23
2022-10-23T21:08:11.883Z,8.53
2022-10-23T21:10:48.425Z,9.05
2022-10-23T21:13:21.666Z,8.13
2022-10-23T21:15:55.035Z,6.87
2022-10-23T21:18:44.829Z,7.17
2022-10-23T21:21:03.442Z,6.95
2022-10-23T21:23:38.650Z,12.45
2022-10-23T21:26:11.488Z,7.30
2022-10-23T21:28:55.613Z,8.75
2022-10-23T21:31:23.806Z,8.93
2022-10-23T21:33:56.759Z,7.45
2022-10-23T21:36:34.305Z,8.08
2022-10-23T21:39:06.929Z,7.22
2022-10-23T21:41:40.406Z,7.78
2022-10-23T21:44:14.141Z,6.95
2022-10-23T21:46:47.890Z,9.17
2022-10-23T21:49:20.983Z,9.28
2022-10-23T21:51:55.328Z,11.88
2022-10-23T21:54:28.848Z,10.58
2022-10-23T21:57:03.265Z,7.62
2022-10-23T22:02:09.667Z,7.90
2022-10-23T22:04:43.612Z,7.80
2022-10-23T22:07:18.687Z,9.13
2022-10-23T22:09:51.591Z,7.40
2022-10-23T22:12:24.788Z,7.97
2022-10-23T22:14:58.479Z,7.75
2022-10-23T22:17:31.582Z,7.87
2022-10-23T22:20:07.244Z,8.15
2022-10-23T22:25:12.958Z,8.48
2022-10-23T22:27:46.573Z,7.65
2022-10-23T22:30:20.253Z,8.13
2022-10-23T22:32:53.150Z,11.20
2022-10-23T22:35:26.499Z,7.50
2022-10-23T22:37:59.038Z,7.62
2022-10-23T22:40:31.956Z,7.70
2022-10-23T22:43:04.660Z,11.30
2022-10-23T22:45:37.603Z,8.35
2022-10-23T22:48:10.126Z,10.55
2022-10-23T22:50:43.967Z,7.33
2022-10-23T22:53:17.077Z,8.33
2022-10-23T22:55:49.652Z,8.38
2022-10-23T22:58:23.202Z,7.90
2022-10-23T23:01:03.550Z,11.90
2022-10-23T23:03:38.193Z,8.45
2022-10-23T23:08:43.528Z,8.50
2022-10-23T23:11:18.531Z,8.53
2022-10-23T23:13:51.395Z,8.33
2022-10-23T23:16:30.490Z,8.40
2022-10-23T23:19:04.564Z,9.20
2022-10-23T23:21:38.401Z,10.18
2022-10-23T23:24:12.768Z,7.90
2022-10-23T23:26:46.188Z,8.18
2022-10-23T23:29:19.521Z,7.62
2022-10-23T23:31:53.877Z,9.98
2022-10-23T23:34:26.472Z,10.03
2022-10-23T23:37:00.890Z,7.72
2022-10-23T23:39:33.636Z,9.33
2022-10-23T23:42:06.406Z,8.58
2022-10-23T23:44:50.234Z,7.08
2022-10-23T23:47:15.565Z,6.65
2022-10-23T23:49:48.509Z,8.00
2022-10-23T23:52:21.826Z,7.15
2022-10-23T23:54:56.205Z,7.45
2022-10-23T23:57:28.949Z,6.80
